sensor_id;sensor_type;location;lat;lon;timestamp;pressure;altitude;pressure_sealevel;temperature;humidity
27643;BME280;15053;48.618;10.024;2022-12-10T00:01:40;92940.47;;;1.43;89.52
27643;BME280;15053;48.618;10.024;2022-12-10T00:04:06;92939.94;;;1.41;89.29
27643;BME280;15053;48.618;10.024;2022-12-10T00:06:35;92934.81;;;1.41;89.46
27643;BME280;15053;48.618;10.024;2022-12-10T00:09:04;92926.38;;;1.35;88.86
27643;BME280;15053;48.618;10.024;2022-12-10T00:11:31;92932.31;;;1.31;89.54
27643;BME280;15053;48.618;10.024;2022-12-10T00:13:58;92934.88;;;1.31;89.76
27643;BME280;15053;48.618;10.024;2022-12-10T00:16:26;92932.81;;;1.33;89.60
27643;BME280;15053;48.618;10.024;2022-12-10T00:18:54;92941.75;;;1.35;89.15
27643;BME280;15053;48.618;10.024;2022-12-10T00:21:23;92941.75;;;1.35;89.25
27643;BME280;15053;48.618;10.024;2022-12-10T00:23:50;92928.19;;;1.35;89.34
27643;BME280;15053;48.618;10.024;2022-12-10T00:26:23;92925.09;;;1.38;89.42
27643;BME280;15053;48.618;10.024;2022-12-10T00:28:51;92928.72;;;1.32;89.54
27643;BME280;15053;48.618;10.024;2022-12-10T00:31:27;92923.59;;;1.27;88.97
27643;BME280;15053;48.618;10.024;2022-12-10T00:33:56;92922.06;;;1.26;89.26
27643;BME280;15053;48.618;10.024;2022-12-10T00:36:31;92914.41;;;1.21;88.97
27643;BME280;15053;48.618;10.024;2022-12-10T00:38:58;92922.34;;;1.19;89.51
27643;BME280;15053;48.618;10.024;2022-12-10T00:41:27;92922.34;;;1.19;89.67
27643;BME280;15053;48.618;10.024;2022-12-10T00:43:54;92920.28;;;1.21;89.88
27643;BME280;15053;48.618;10.024;2022-12-10T00:46:20;92912.84;;;1.25;89.59
27643;BME280;15053;48.618;10.024;2022-12-10T00:48:47;92910.03;;;1.26;90.54
27643;BME280;15053;48.618;10.024;2022-12-10T00:51:19;92916.66;;;1.27;90.17
27643;BME280;15053;48.618;10.024;2022-12-10T00:53:48;92926.16;;;1.27;89.73
27643;BME280;15053;48.618;10.024;2022-12-10T00:56:16;92940.00;;;1.31;90.25
27643;BME280;15053;48.618;10.024;2022-12-10T00:58:43;92934.63;;;1.27;90.06
27643;BME280;15053;48.618;10.024;2022-12-10T01:01:15;92926.91;;;1.32;90.11
27643;BME280;15053;48.618;10.024;2022-12-10T01:03:42;92929.25;;;1.29;90.05
27643;BME280;15053;48.618;10.024;2022-12-10T01:08:40;92950.50;;;1.34;90.13
27643;BME280;15053;48.618;10.024;2022-12-10T01:11:07;92946.13;;;1.35;89.44
27643;BME280;15053;48.618;10.024;2022-12-10T01:13:34;92950.72;;;1.38;90.19
27643;BME280;15053;48.618;10.024;2022-12-10T01:16:04;92958.94;;;1.40;89.73
27643;BME280;15053;48.618;10.024;2022-12-10T01:18:31;92961.00;;;1.38;89.69
27643;BME280;15053;48.618;10.024;2022-12-10T01:21:02;92960.25;;;1.37;89.49
27643;BME280;15053;48.618;10.024;2022-12-10T01:23:34;92961.50;;;1.40;89.32
27643;BME280;15053;48.618;10.024;2022-12-10T01:26:03;92969.72;;;1.42;89.21
27643;BME280;15053;48.618;10.024;2022-12-10T01:28:31;92963.56;;;1.43;89.36
27643;BME280;15053;48.618;10.024;2022-12-10T01:31:19;92968.91;;;1.46;89.85
27643;BME280;15053;48.618;10.024;2022-12-10T01:33:47;92967.41;;;1.45;89.00
27643;BME280;15053;48.618;10.024;2022-12-10T01:36:19;92957.66;;;1.42;89.15
27643;BME280;15053;48.618;10.024;2022-12-10T01:38:46;92970.22;;;1.44;89.46
27643;BME280;15053;48.618;10.024;2022-12-10T01:41:25;92969.72;;;1.42;89.29
27643;BME280;15053;48.618;10.024;2022-12-10T01:46:41;92975.34;;;1.44;88.83
27643;BME280;15053;48.618;10.024;2022-12-10T01:49:20;92966.63;;;1.45;89.18
27643;BME280;15053;48.618;10.024;2022-12-10T01:51:49;92968.41;;;1.44;89.25
27643;BME280;15053;48.618;10.024;2022-12-10T01:54:26;92968.13;;;1.46;88.84
27643;BME280;15053;48.618;10.024;2022-12-10T01:56:59;92964.56;;;1.47;89.58
27643;BME280;15053;48.618;10.024;2022-12-10T01:59:27;92973.25;;;1.46;88.66
27643;BME280;15053;48.618;10.024;2022-12-10T02:02:05;92977.66;;;1.45;88.65
27643;BME280;15053;48.618;10.024;2022-12-10T02:07:59;92978.66;;;1.49;88.96
27643;BME280;15053;48.618;10.024;2022-12-10T02:10:46;92974.81;;;1.47;88.67
27643;BME280;15053;48.618;10.024;2022-12-10T02:13:39;92971.75;;;1.45;89.06
27643;BME280;15053;48.618;10.024;2022-12-10T02:16:15;92970.47;;;1.42;89.24
27643;BME280;15053;48.618;10.024;2022-12-10T02:18:49;92981.50;;;1.43;88.87
27643;BME280;15053;48.618;10.024;2022-12-10T02:21:29;92980.00;;;1.37;88.41
27643;BME280;15053;48.618;10.024;2022-12-10T02:24:03;92976.91;;;1.35;88.69
27643;BME280;15053;48.618;10.024;2022-12-10T02:29:26;92988.44;;;1.37;88.97
27643;BME280;15053;48.618;10.024;2022-12-10T02:32:09;92982.03;;;1.35;88.80
27643;BME280;15053;48.618;10.024;2022-12-10T02:34:41;92975.84;;;1.41;88.82
27643;BME280;15053;48.618;10.024;2022-12-10T02:37:17;92962.81;;;1.32;88.79
27643;BME280;15053;48.618;10.024;2022-12-10T02:39:53;92964.63;;;1.32;88.89
27643;BME280;15053;48.618;10.024;2022-12-10T02:42:21;92955.38;;;1.31;89.51
27643;BME280;15053;48.618;10.024;2022-12-10T02:44:50;92957.94;;;1.31;89.55
27643;BME280;15053;48.618;10.024;2022-12-10T02:47:20;92952.53;;;1.32;88.99
27643;BME280;15053;48.618;10.024;2022-12-10T02:49:50;92961.78;;;1.33;89.22
27643;BME280;15053;48.618;10.024;2022-12-10T02:52:20;92969.75;;;1.32;89.39
27643;BME280;15053;48.618;10.024;2022-12-10T02:54:51;92967.69;;;1.34;89.57
27643;BME280;15053;48.618;10.024;2022-12-10T02:57:45;92964.06;;;1.35;89.60
27643;BME280;15053;48.618;10.024;2022-12-10T03:00:16;92964.34;;;1.33;88.75
27643;BME280;15053;48.618;10.024;2022-12-10T03:06:18;92962.81;;;1.27;89.24
27643;BME280;15053;48.618;10.024;2022-12-10T03:11:30;92962.84;;;1.22;89.56
27643;BME280;15053;48.618;10.024;2022-12-10T03:13:58;92960.00;;;1.29;89.16
27643;BME280;15053;48.618;10.024;2022-12-10T03:16:34;92952.84;;;1.26;89.35
27643;BME280;15053;48.618;10.024;2022-12-10T03:19:05;92952.31;;;1.29;89.07
27643;BME280;15053;48.618;10.024;2022-12-10T03:21:34;92952.81;;;1.31;89.75
27643;BME280;15053;48.618;10.024;2022-12-10T03:24:07;92952.03;;;1.30;89.09
27643;BME280;15053;48.618;10.024;2022-12-10T03:26:34;92955.38;;;1.31;89.68
27643;BME280;15053;48.618;10.024;2022-12-10T03:29:06;92951.81;;;1.32;89.70
27643;BME280;15053;48.618;10.024;2022-12-10T03:31:34;92943.09;;;1.28;89.50
27643;BME280;15053;48.618;10.024;2022-12-10T03:34:02;92943.84;;;1.33;89.35
27643;BME280;15053;48.618;10.024;2022-12-10T03:36:30;92938.72;;;1.33;88.87
27643;BME280;15053;48.618;10.024;2022-12-10T03:38:58;92938.44;;;1.35;88.82
27643;BME280;15053;48.618;10.024;2022-12-10T03:41:25;92938.44;;;1.35;89.59
27643;BME280;15053;48.618;10.024;2022-12-10T03:43:56;92949.72;;;1.34;89.35
27643;BME280;15053;48.618;10.024;2022-12-10T03:46:24;92960.50;;;1.31;89.21
27643;BME280;15053;48.618;10.024;2022-12-10T03:48:52;92968.69;;;1.33;89.22
27643;BME280;15053;48.618;10.024;2022-12-10T03:51:20;92977.66;;;1.35;88.71
27643;BME280;15053;48.618;10.024;2022-12-10T03:53:47;92962.06;;;1.32;88.50
27643;BME280;15053;48.618;10.024;2022-12-10T03:56:18;92961.50;;;1.35;88.82
27643;BME280;15053;48.618;10.024;2022-12-10T03:58:45;92967.94;;;1.37;88.40
27643;BME280;15053;48.618;10.024;2022-12-10T04:01:12;92956.63;;;1.38;89.00
27643;BME280;15053;48.618;10.024;2022-12-10T04:03:41;92955.63;;;1.39;89.01
27643;BME280;15053;48.618;10.024;2022-12-10T04:06:11;92963.03;;;1.41;88.74
27643;BME280;15053;48.618;10.024;2022-12-10T04:08:38;92946.88;;;1.40;88.81
27643;BME280;15053;48.618;10.024;2022-12-10T04:11:06;92949.44;;;1.40;88.68
27643;BME280;15053;48.618;10.024;2022-12-10T04:13:34;92944.31;;;1.40;87.62
27643;BME280;15053;48.618;10.024;2022-12-10T04:16:40;92947.91;;;1.39;88.21
27643;BME280;15053;48.618;10.024;2022-12-10T04:19:09;92942.03;;;1.39;88.44
27643;BME280;15053;48.618;10.024;2022-12-10T04:21:38;92942.56;;;1.31;87.80
27643;BME280;15053;48.618;10.024;2022-12-10T04:24:27;92935.38;;;1.28;88.09
27643;BME280;15053;48.618;10.024;2022-12-10T04:27:24;92943.34;;;1.26;88.11
27643;BME280;15053;48.618;10.024;2022-12-10T04:29:52;92942.59;;;1.26;87.94
27643;BME280;15053;48.618;10.024;2022-12-10T04:32:20;92954.34;;;1.27;87.42
27643;BME280;15053;48.618;10.024;2022-12-10T04:34:47;92956.19;;;1.26;87.45
27643;BME280;15053;48.618;10.024;2022-12-10T04:37:14;92954.34;;;1.27;87.03
27643;BME280;15053;48.618;10.024;2022-12-10T04:39:41;92944.09;;;1.27;86.79
27643;BME280;15053;48.618;10.024;2022-12-10T04:42:08;92951.28;;;1.25;87.18
27643;BME280;15053;48.618;10.024;2022-12-10T04:44:35;92956.41;;;1.25;86.27
27643;BME280;15053;48.618;10.024;2022-12-10T04:47:04;92950.81;;;1.17;86.27
27643;BME280;15053;48.618;10.024;2022-12-10T04:49:31;92955.41;;;1.26;86.60
27643;BME280;15053;48.618;10.024;2022-12-10T04:51:58;92957.19;;;1.25;86.30
27643;BME280;15053;48.618;10.024;2022-12-10T04:54:25;92960.28;;;1.22;86.08
27643;BME280;15053;48.618;10.024;2022-12-10T04:56:53;92965.16;;;1.24;86.11
27643;BME280;15053;48.618;10.024;2022-12-10T04:59:19;92962.59;;;1.24;85.97
27643;BME280;15053;48.618;10.024;2022-12-10T05:01:46;92964.38;;;1.23;85.54
27643;BME280;15053;48.618;10.024;2022-12-10T05:04:15;92971.03;;;1.24;85.18
27643;BME280;15053;48.618;10.024;2022-12-10T05:06:43;92976.44;;;1.23;86.17
27643;BME280;15053;48.618;10.024;2022-12-10T05:09:11;92971.31;;;1.23;85.79
27643;BME280;15053;48.618;10.024;2022-12-10T05:11:38;92970.28;;;1.24;85.15
27643;BME280;15053;48.618;10.024;2022-12-10T05:14:06;92976.41;;;1.28;85.05
27643;BME280;15053;48.618;10.024;2022-12-10T05:16:33;92967.44;;;1.25;85.48
27643;BME280;15053;48.618;10.024;2022-12-10T05:19:00;92972.31;;;1.27;85.41
27643;BME280;15053;48.618;10.024;2022-12-10T05:21:28;92978.97;;;1.28;84.90
27643;BME280;15053;48.618;10.024;2022-12-10T05:24:16;92983.59;;;1.26;85.74
27643;BME280;15053;48.618;10.024;2022-12-10T05:26:43;92980.53;;;1.29;85.87
27643;BME280;15053;48.618;10.024;2022-12-10T05:29:12;92966.69;;;1.25;85.80
27643;BME280;15053;48.618;10.024;2022-12-10T05:31:39;92972.84;;;1.29;85.51
27643;BME280;15053;48.618;10.024;2022-12-10T05:34:06;92984.59;;;1.30;85.49
27643;BME280;15053;48.618;10.024;2022-12-10T05:36:34;92982.56;;;1.32;85.08
27643;BME280;15053;48.618;10.024;2022-12-10T05:39:02;92980.50;;;1.34;84.85
27643;BME280;15053;48.618;10.024;2022-12-10T05:41:30;92973.06;;;1.32;85.28
27643;BME280;15053;48.618;10.024;2022-12-10T05:43:58;92986.66;;;1.33;84.86
27643;BME280;15053;48.618;10.024;2022-12-10T05:46:28;92992.06;;;1.31;84.78
27643;BME280;15053;48.618;10.024;2022-12-10T05:48:55;92996.94;;;1.28;84.26
27643;BME280;15053;48.618;10.024;2022-12-10T05:51:25;92993.84;;;1.26;84.64
27643;BME280;15053;48.618;10.024;2022-12-10T05:53:52;92989.25;;;1.23;84.86
27643;BME280;15053;48.618;10.024;2022-12-10T05:56:21;93002.81;;;1.28;84.74
27643;BME280;15053;48.618;10.024;2022-12-10T05:58:50;93000.00;;;1.30;84.94
27643;BME280;15053;48.618;10.024;2022-12-10T06:01:22;93001.53;;;1.31;84.88
27643;BME280;15053;48.618;10.024;2022-12-10T06:03:49;93003.59;;;1.34;85.48
27643;BME280;15053;48.618;10.024;2022-12-10T06:06:28;93004.09;;;1.36;85.30
27643;BME280;15053;48.618;10.024;2022-12-10T06:08:55;93002.53;;;1.35;85.10
27643;BME280;15053;48.618;10.024;2022-12-10T06:11:23;93001.78;;;1.34;85.10
27643;BME280;15053;48.618;10.024;2022-12-10T06:13:49;92990.00;;;1.33;85.48
27643;BME280;15053;48.618;10.024;2022-12-10T06:16:22;92994.59;;;1.36;85.03
27643;BME280;15053;48.618;10.024;2022-12-10T06:18:50;92993.81;;;1.36;85.25
27643;BME280;15053;48.618;10.024;2022-12-10T06:21:17;92987.16;;;1.35;85.00
27643;BME280;15053;48.618;10.024;2022-12-10T06:23:44;93001.78;;;1.34;84.66
27643;BME280;15053;48.618;10.024;2022-12-10T06:26:18;93000.75;;;1.30;85.50
27643;BME280;15053;48.618;10.024;2022-12-10T06:28:46;93003.59;;;1.29;84.52
27643;BME280;15053;48.618;10.024;2022-12-10T06:31:13;93003.63;;;1.24;84.92
27643;BME280;15053;48.618;10.024;2022-12-10T06:33:40;93010.25;;;1.25;85.54
27643;BME280;15053;48.618;10.024;2022-12-10T06:36:09;92997.44;;;1.25;84.79
27643;BME280;15053;48.618;10.024;2022-12-10T06:38:36;93003.09;;;1.22;84.84
27643;BME280;15053;48.618;10.024;2022-12-10T06:41:08;93001.56;;;1.26;85.40
27643;BME280;15053;48.618;10.024;2022-12-10T06:43:35;93003.06;;;1.27;85.14
27643;BME280;15053;48.618;10.024;2022-12-10T06:46:11;93008.75;;;1.24;84.87
27643;BME280;15053;48.618;10.024;2022-12-10T06:48:38;93005.41;;;1.23;85.05
27643;BME280;15053;48.618;10.024;2022-12-10T06:51:05;93004.66;;;1.17;84.32
27643;BME280;15053;48.618;10.024;2022-12-10T06:53:33;93010.03;;;1.16;84.64
27643;BME280;15053;48.618;10.024;2022-12-10T06:56:01;93012.84;;;1.14;85.12
27643;BME280;15053;48.618;10.024;2022-12-10T06:58:28;93019.25;;;1.17;84.38
27643;BME280;15053;48.618;10.024;2022-12-10T07:01:05;93020.53;;;1.19;84.65
27643;BME280;15053;48.618;10.024;2022-12-10T07:03:31;93025.38;;;1.21;84.87
27643;BME280;15053;48.618;10.024;2022-12-10T07:06:02;93028.22;;;1.19;85.02
27643;BME280;15053;48.618;10.024;2022-12-10T07:08:29;93026.44;;;1.20;84.70
27643;BME280;15053;48.618;10.024;2022-12-10T07:11:03;93028.22;;;1.19;84.32
27643;BME280;15053;48.618;10.024;2022-12-10T07:13:30;93034.91;;;1.21;85.08
27643;BME280;15053;48.618;10.024;2022-12-10T07:15:58;93027.94;;;1.21;84.36
27643;BME280;15053;48.618;10.024;2022-12-10T07:18:25;93031.81;;;1.24;84.60
27643;BME280;15053;48.618;10.024;2022-12-10T07:20:51;93032.03;;;1.27;83.86
27643;BME280;15053;48.618;10.024;2022-12-10T07:23:18;93031.03;;;1.23;84.66
27643;BME280;15053;48.618;10.024;2022-12-10T07:25:45;93022.56;;;1.28;84.67
27643;BME280;15053;48.618;10.024;2022-12-10T07:28:12;93030.25;;;1.33;83.93
27643;BME280;15053;48.618;10.024;2022-12-10T07:30:38;93039.47;;;1.34;83.96
27643;BME280;15053;48.618;10.024;2022-12-10T07:33:05;93041.78;;;1.35;84.74
27643;BME280;15053;48.618;10.024;2022-12-10T07:35:31;93032.78;;;1.38;84.12
27643;BME280;15053;48.618;10.024;2022-12-10T07:37:58;93035.34;;;1.38;84.08
27643;BME280;15053;48.618;10.024;2022-12-10T07:40:24;93037.69;;;1.39;83.94
27643;BME280;15053;48.618;10.024;2022-12-10T07:42:51;93051.28;;;1.40;84.22
27643;BME280;15053;48.618;10.024;2022-12-10T07:45:17;93053.84;;;1.40;84.00
27643;BME280;15053;48.618;10.024;2022-12-10T07:47:44;93048.94;;;1.43;83.52
27643;BME280;15053;48.618;10.024;2022-12-10T07:50:10;93042.50;;;1.46;84.10
27643;BME280;15053;48.618;10.024;2022-12-10T07:52:37;93049.69;;;1.49;83.24
27643;BME280;15053;48.618;10.024;2022-12-10T07:55:04;93062.28;;;1.50;83.11
27643;BME280;15053;48.618;10.024;2022-12-10T07:57:30;93061.00;;;1.48;83.11
27643;BME280;15053;48.618;10.024;2022-12-10T07:59:57;93060.47;;;1.46;83.63
27643;BME280;15053;48.618;10.024;2022-12-10T08:02:24;93069.97;;;1.50;83.65
27643;BME280;15053;48.618;10.024;2022-12-10T08:04:50;93064.56;;;1.52;83.90
27643;BME280;15053;48.618;10.024;2022-12-10T08:07:17;93043.03;;;1.53;83.68
27643;BME280;15053;48.618;10.024;2022-12-10T08:09:43;93060.97;;;1.53;83.73
27643;BME280;15053;48.618;10.024;2022-12-10T08:12:10;93056.63;;;1.53;83.32
27643;BME280;15053;48.618;10.024;2022-12-10T08:14:36;93063.81;;;1.56;83.10
27643;BME280;15053;48.618;10.024;2022-12-10T08:17:03;93053.78;;;1.55;83.25
27643;BME280;15053;48.618;10.024;2022-12-10T08:19:29;93067.38;;;1.60;83.16
27643;BME280;15053;48.618;10.024;2022-12-10T08:21:57;93068.63;;;1.63;83.21
27643;BME280;15053;48.618;10.024;2022-12-10T08:24:24;93070.69;;;1.66;82.70
27643;BME280;15053;48.618;10.024;2022-12-10T08:26:50;93065.03;;;1.69;82.85
27643;BME280;15053;48.618;10.024;2022-12-10T08:29:17;93066.06;;;1.73;82.48
27643;BME280;15053;48.618;10.024;2022-12-10T08:31:43;93067.56;;;1.79;83.09
27643;BME280;15053;48.618;10.024;2022-12-10T08:34:14;93069.09;;;1.85;82.43
27643;BME280;15053;48.618;10.024;2022-12-10T08:36:42;93075.78;;;1.86;82.27
27643;BME280;15053;48.618;10.024;2022-12-10T08:39:09;93075.25;;;1.89;82.22
27643;BME280;15053;48.618;10.024;2022-12-10T08:41:45;93075.25;;;1.89;82.83
27643;BME280;15053;48.618;10.024;2022-12-10T08:44:12;93077.81;;;1.89;82.21
27643;BME280;15053;48.618;10.024;2022-12-10T08:46:39;93071.63;;;1.90;82.75
27643;BME280;15053;48.618;10.024;2022-12-10T08:49:06;93072.66;;;1.94;81.89
27643;BME280;15053;48.618;10.024;2022-12-10T08:51:35;93071.88;;;1.99;81.74
27643;BME280;15053;48.618;10.024;2022-12-10T08:54:01;93068.53;;;2.03;82.24
27643;BME280;15053;48.618;10.024;2022-12-10T08:56:29;93072.06;;;2.12;81.52
27643;BME280;15053;48.618;10.024;2022-12-10T08:58:56;93067.44;;;2.09;81.75
27643;BME280;15053;48.618;10.024;2022-12-10T09:01:22;93081.06;;;2.10;81.49
27643;BME280;15053;48.618;10.024;2022-12-10T09:03:49;93064.88;;;2.09;81.17
27643;BME280;15053;48.618;10.024;2022-12-10T09:06:18;93070.56;;;2.11;80.63
27643;BME280;15053;48.618;10.024;2022-12-10T09:08:45;93081.34;;;2.08;79.92
27643;BME280;15053;48.618;10.024;2022-12-10T09:11:14;93089.28;;;2.07;80.43
27643;BME280;15053;48.618;10.024;2022-12-10T09:13:41;93094.69;;;2.05;80.09
27643;BME280;15053;48.618;10.024;2022-12-10T09:16:09;93104.97;;;2.05;79.48
27643;BME280;15053;48.618;10.024;2022-12-10T09:18:36;93111.13;;;2.04;79.44
27643;BME280;15053;48.618;10.024;2022-12-10T09:21:07;93112.16;;;2.03;78.79
27643;BME280;15053;48.618;10.024;2022-12-10T09:23:34;93106.53;;;1.96;78.99
27643;BME280;15053;48.618;10.024;2022-12-10T09:26:01;93106.53;;;1.96;79.32
27643;BME280;15053;48.618;10.024;2022-12-10T09:28:27;93104.47;;;1.98;78.47
27643;BME280;15053;48.618;10.024;2022-12-10T09:30:58;93103.44;;;1.99;78.70
27643;BME280;15053;48.618;10.024;2022-12-10T09:33:27;93100.88;;;1.99;78.25
27643;BME280;15053;48.618;10.024;2022-12-10T09:35:53;93109.59;;;2.03;78.18
27643;BME280;15053;48.618;10.024;2022-12-10T09:38:20;93106.53;;;1.96;78.32
27643;BME280;15053;48.618;10.024;2022-12-10T09:40:51;93111.16;;;1.99;78.23
27643;BME280;15053;48.618;10.024;2022-12-10T09:49:07;93098.81;;;2.01;77.33
27643;BME280;15053;48.618;10.024;2022-12-10T09:51:37;93100.34;;;2.02;77.72
27643;BME280;15053;48.618;10.024;2022-12-10T09:54:15;93099.84;;;2.05;77.76
27643;BME280;15053;48.618;10.024;2022-12-10T09:56:45;93100.59;;;2.06;77.68
27643;BME280;15053;48.618;10.024;2022-12-10T09:59:29;93094.69;;;2.05;77.13
27643;BME280;15053;48.618;10.024;2022-12-10T10:02:03;93095.22;;;2.02;77.59
27643;BME280;15053;48.618;10.024;2022-12-10T10:04:39;93096.78;;;2.03;77.32
27643;BME280;15053;48.618;10.024;2022-12-10T10:07:05;93097.75;;;2.07;77.60
27643;BME280;15053;48.618;10.024;2022-12-10T10:09:37;93091.09;;;2.06;77.58
27643;BME280;15053;48.618;10.024;2022-12-10T10:12:13;93094.44;;;2.02;77.11
27643;BME280;15053;48.618;10.024;2022-12-10T10:14:43;93089.84;;;1.99;77.75
27643;BME280;15053;48.618;10.024;2022-12-10T10:17:20;93088.56;;;1.96;77.08
27643;BME280;15053;48.618;10.024;2022-12-10T10:19:47;93095.00;;;1.94;77.39
27643;BME280;15053;48.618;10.024;2022-12-10T10:22:15;93100.91;;;1.94;77.94
27643;BME280;15053;48.618;10.024;2022-12-10T10:24:44;93096.78;;;1.93;78.27
27643;BME280;15053;48.618;10.024;2022-12-10T10:27:16;93097.84;;;1.92;77.63
27643;BME280;15053;48.618;10.024;2022-12-10T10:29:44;93101.41;;;1.91;77.72
27643;BME280;15053;48.618;10.024;2022-12-10T10:35:02;93101.19;;;1.83;77.93
27643;BME280;15053;48.618;10.024;2022-12-10T10:37:40;93097.31;;;1.85;78.39
27643;BME280;15053;48.618;10.024;2022-12-10T10:42:48;93101.19;;;1.83;78.85
27643;BME280;15053;48.618;10.024;2022-12-10T10:48:20;93110.91;;;1.91;78.50
27643;BME280;15053;48.618;10.024;2022-12-10T10:56:08;93101.97;;;1.83;78.24
27643;BME280;15053;48.618;10.024;2022-12-10T10:58:36;93097.34;;;1.80;78.61
27643;BME280;15053;48.618;10.024;2022-12-10T11:01:11;93109.16;;;1.81;78.67
27643;BME280;15053;48.618;10.024;2022-12-10T11:03:46;93111.44;;;1.83;78.79
27643;BME280;15053;48.618;10.024;2022-12-10T11:06:13;93113.75;;;1.84;78.24
27643;BME280;15053;48.618;10.024;2022-12-10T11:08:41;93114.78;;;1.88;78.66
27643;BME280;15053;48.618;10.024;2022-12-10T11:11:36;93101.41;;;1.91;78.83
27643;BME280;15053;48.618;10.024;2022-12-10T11:14:24;93106.53;;;1.96;78.54
27643;BME280;15053;48.618;10.024;2022-12-10T11:20:14;93107.56;;;2.00;79.13
27643;BME280;15053;48.618;10.024;2022-12-10T11:22:49;93111.91;;;2.00;79.07
27643;BME280;15053;48.618;10.024;2022-12-10T11:25:17;93116.78;;;1.96;78.91
27643;BME280;15053;48.618;10.024;2022-12-10T11:28:02;93101.41;;;1.91;79.13
27643;BME280;15053;48.618;10.024;2022-12-10T11:30:34;93101.91;;;1.93;78.99
27643;BME280;15053;48.618;10.024;2022-12-10T11:33:27;93105.25;;;1.99;78.79
27643;BME280;15053;48.618;10.024;2022-12-10T11:36:53;93106.78;;;2.00;78.50
27643;BME280;15053;48.618;10.024;2022-12-10T11:42:17;93116.75;;;2.06;78.18
27643;BME280;15053;48.618;10.024;2022-12-10T11:45:08;93123.44;;;2.07;78.12
27643;BME280;15053;48.618;10.024;2022-12-10T11:48:03;93129.63;;;1.96;77.97
27643;BME280;15053;48.618;10.024;2022-12-10T11:50:48;93131.69;;;1.94;78.09
27643;BME280;15053;48.618;10.024;2022-12-10T11:56:26;93111.72;;;1.81;77.99
27643;BME280;15053;48.618;10.024;2022-12-10T11:59:14;93118.66;;;1.81;77.97
27643;BME280;15053;48.618;10.024;2022-12-10T12:04:52;93128.16;;;1.75;78.99
27643;BME280;15053;48.618;10.024;2022-12-10T12:07:36;93128.66;;;1.77;78.89
27643;BME280;15053;48.618;10.024;2022-12-10T12:10:19;93136.09;;;1.78;79.01
27643;BME280;15053;48.618;10.024;2022-12-10T12:13:16;93132.75;;;1.83;78.83
27643;BME280;15053;48.618;10.024;2022-12-10T12:15:50;93131.72;;;1.79;78.84
27643;BME280;15053;48.618;10.024;2022-12-10T12:21:14;93134.31;;;1.74;79.16
27643;BME280;15053;48.618;10.024;2022-12-10T12:26:42;93131.47;;;1.86;78.98
27643;BME280;15053;48.618;10.024;2022-12-10T12:29:19;93135.03;;;1.90;79.00
27643;BME280;15053;48.618;10.024;2022-12-10T12:32:04;93128.09;;;1.90;79.27
27643;BME280;15053;48.618;10.024;2022-12-10T12:34:51;93136.06;;;1.94;79.37
27643;BME280;15053;48.618;10.024;2022-12-10T12:37:49;93136.06;;;1.89;78.89
27643;BME280;15053;48.618;10.024;2022-12-10T12:40:34;93132.75;;;1.83;79.17
27643;BME280;15053;48.618;10.024;2022-12-10T12:43:22;93140.44;;;1.83;79.20
27643;BME280;15053;48.618;10.024;2022-12-10T12:45:54;93145.81;;;1.82;79.55
27643;BME280;15053;48.618;10.024;2022-12-10T12:48:44;93154.31;;;1.77;79.16
27643;BME280;15053;48.618;10.024;2022-12-10T12:51:18;93152.78;;;1.71;79.01
27643;BME280;15053;48.618;10.024;2022-12-10T12:53:46;93146.88;;;1.65;79.15
27643;BME280;15053;48.618;10.024;2022-12-10T12:56:49;93158.44;;;1.63;79.64
27643;BME280;15053;48.618;10.024;2022-12-10T12:59:34;93157.66;;;1.62;79.17
27643;BME280;15053;48.618;10.024;2022-12-10T13:02:17;93156.16;;;1.61;79.59
27643;BME280;15053;48.618;10.024;2022-12-10T13:04:45;93156.91;;;1.62;79.78
27643;BME280;15053;48.618;10.024;2022-12-10T13:09:51;93160.25;;;1.67;80.64
27643;BME280;15053;48.618;10.024;2022-12-10T13:12:28;93163.81;;;1.71;80.09
27643;BME280;15053;48.618;10.024;2022-12-10T13:17:31;93168.94;;;1.76;80.69
27643;BME280;15053;48.618;10.024;2022-12-10T13:23:04;93167.66;;;1.79;80.41
27643;BME280;15053;48.618;10.024;2022-12-10T13:26:01;93164.06;;;1.80;80.39
27643;BME280;15053;48.618;10.024;2022-12-10T13:33:52;93173.31;;;1.71;80.32
27643;BME280;15053;48.618;10.024;2022-12-10T13:39:21;93195.88;;;1.79;80.50
27643;BME280;15053;48.618;10.024;2022-12-10T13:47:43;93200.25;;;1.78;79.54
27643;BME280;15053;48.618;10.024;2022-12-10T14:00:57;93208.22;;;1.52;79.39
27643;BME280;15053;48.618;10.024;2022-12-10T14:06:26;93218.72;;;1.40;79.52
27643;BME280;15053;48.618;10.024;2022-12-10T14:08:57;93217.44;;;1.38;79.48
27643;BME280;15053;48.618;10.024;2022-12-10T14:11:29;93222.56;;;1.38;79.86
27643;BME280;15053;48.618;10.024;2022-12-10T14:14:04;93233.09;;;1.36;80.00
27643;BME280;15053;48.618;10.024;2022-12-10T14:16:32;93232.06;;;1.37;79.57
27643;BME280;15053;48.618;10.024;2022-12-10T14:19:04;93235.38;;;1.38;80.15
27643;BME280;15053;48.618;10.024;2022-12-10T14:21:32;93239.22;;;1.40;79.60
27643;BME280;15053;48.618;10.024;2022-12-10T14:23:59;93245.63;;;1.38;80.40
27643;BME280;15053;48.618;10.024;2022-12-10T14:26:30;93251.81;;;1.37;79.63
27643;BME280;15053;48.618;10.024;2022-12-10T14:28:59;93250.00;;;1.32;79.94
27643;BME280;15053;48.618;10.024;2022-12-10T14:31:35;93257.44;;;1.29;79.88
27643;BME280;15053;48.618;10.024;2022-12-10T14:34:06;93257.69;;;1.22;79.51
27643;BME280;15053;48.618;10.024;2022-12-10T14:36:39;93264.59;;;1.27;79.95
27643;BME280;15053;48.618;10.024;2022-12-10T14:39:24;93249.22;;;1.22;80.12
27643;BME280;15053;48.618;10.024;2022-12-10T14:41:54;93255.63;;;1.19;79.53
27643;BME280;15053;48.618;10.024;2022-12-10T14:44:21;93264.84;;;1.20;79.82
27643;BME280;15053;48.618;10.024;2022-12-10T14:46:49;93258.69;;;1.21;80.02
27643;BME280;15053;48.618;10.024;2022-12-10T14:49:26;93263.06;;;1.21;80.16
27643;BME280;15053;48.618;10.024;2022-12-10T14:51:55;93266.66;;;1.19;80.81
27643;BME280;15053;48.618;10.024;2022-12-10T14:56:55;93281.25;;;1.14;80.22